Time;durP1;ratioP1;P1;durP2;ratioP2;P2;SDS_P1;SDS_P2;PMS_P1;PMS_P2;Temp;Humidity;BMP_temperature;BMP_pressure;BME280_temperature;BME280_humidity;BME280_pressure;Samples;Min_cycle;Max_cycle;Signal;HPM_P1;HPM_P2
2022/02/09 00:03:09;;;;;;;;;7.60;7.00;;;;;11.17;58.45;99355.63;6215491;28;96531;-67
2022/02/09 00:06:23;;;;;;;;;9.20;7.20;;;;;11.17;58.72;99361.03;6214412;28;97015;-67
2022/02/09 00:09:26;;;;;;;;;9.00;8.00;;;;;11.17;58.91;99383.47;6215973;28;97046;-67
2022/02/09 00:12:37;;;;;;;;;8.00;8.00;;;;;11.24;58.47;99370.75;6215372;28;97501;-67
2022/02/09 00:15:48;;;;;;;;;10.20;8.20;;;;;11.43;58.19;99382.53;6240155;27;96474;-68
2022/02/09 00:18:59;;;;;;;;;7.00;5.40;;;;;11.52;57.89;99383.09;6211301;28;97439;-68
2022/02/09 00:22:18;;;;;;;;;9.00;8.00;;;;;11.57;57.69;99385.97;6190370;28;97488;-69
2022/02/09 00:26:20;;;;;;;;;8.00;7.00;;;;;11.49;58.12;99399.72;6223361;28;97072;-67
2022/02/09 00:32:46;;;;;;;;;8.00;7.00;;;;;11.62;57.54;99408.59;6191350;28;99778;-67
2022/02/09 00:39:37;;;;;;;;;8.80;7.80;;;;;11.61;57.71;99419.59;6171949;28;96920;-68
2022/02/09 00:43:09;;;;;;;;;8.00;7.60;;;;;11.55;57.69;99404.25;6216501;28;97386;-67
2022/02/09 01:02:43;;;;;;;;;12.00;11.20;;;;;11.76;57.60;99449.06;6238866;28;97561;-67
2022/02/09 01:44:29;;;;;;;;;10.80;10.00;;;;;11.85;57.22;99462.09;6228158;28;96395;-68
2022/02/09 01:51:15;;;;;;;;;11.60;10.00;;;;;11.75;57.54;99466.31;6204463;28;96692;-67
2022/02/09 01:57:42;;;;;;;;;11.75;11.00;;;;;11.79;57.57;99481.88;6219816;28;96738;-67
2022/02/09 02:00:46;;;;;;;;;12.00;10.60;;;;;11.83;57.40;99476.84;6236950;28;96742;-67
2022/02/09 02:03:50;;;;;;;;;13.40;12.00;;;;;11.94;57.15;99492.41;6237748;28;97061;-67
2022/02/09 02:06:55;;;;;;;;;11.00;10.00;;;;;11.97;57.23;99489.28;6217599;28;99546;-67
2022/02/09 02:10:05;;;;;;;;;10.00;10.00;;;;;11.86;57.25;99500.75;6233429;28;96838;-67
2022/02/09 02:13:20;;;;;;;;;13.00;11.00;;;;;11.85;57.38;99491.81;6214384;28;97410;-67
2022/02/09 02:16:30;;;;;;;;;10.00;9.80;;;;;11.83;57.54;99493.06;6211598;28;96829;-68
2022/02/09 02:19:38;;;;;;;;;10.50;10.50;;;;;11.93;57.38;99491.56;6222020;28;98511;-68
2022/02/09 02:23:00;;;;;;;;;10.00;10.00;;;;;12.02;57.00;99492.97;6223715;28;97785;-68
2022/02/09 02:26:15;;;;;;;;;11.40;11.00;;;;;12.08;57.10;99499.38;6212050;28;97087;-68
2022/02/09 02:29:49;;;;;;;;;11.00;11.00;;;;;12.01;57.33;99487.81;6213075;28;97529;-66
2022/02/09 02:33:14;;;;;;;;;11.80;10.80;;;;;12.07;57.17;99500.47;6212625;28;97497;-67
2022/02/09 02:36:31;;;;;;;;;10.00;10.00;;;;;12.05;56.92;99495.25;6211905;28;96475;-69
2022/02/09 02:40:01;;;;;;;;;12.00;12.00;;;;;12.06;56.96;99486.13;6212640;28;96634;-67
2022/02/09 03:07:57;;;;;;;;;12.00;11.00;;;;;12.31;56.18;99498.84;6206009;28;96762;-66
2022/02/09 03:10:16;;;;;;;;;10.50;10.00;;;;;12.37;55.88;99517.72;6206664;28;96364;-67
2022/02/09 03:13:24;;;;;;;;;12.00;11.00;;;;;12.26;56.05;99521.13;6210282;28;99196;-67
2022/02/09 03:16:36;;;;;;;;;11.00;10.00;;;;;12.20;56.22;99519.28;6221732;28;98558;-67
2022/02/09 03:19:52;;;;;;;;;12.60;12.00;;;;;12.14;56.38;99521.00;6218417;28;96570;-67
2022/02/09 03:23:01;;;;;;;;;11.60;11.00;;;;;12.10;56.48;99525.16;6216152;28;97489;-67
2022/02/09 03:26:25;;;;;;;;;12.00;11.00;;;;;12.17;56.50;99529.72;6216262;28;96448;-68
2022/02/09 03:43:04;;;;;;;;;10.60;9.60;;;;;11.93;57.09;99523.16;6190840;28;97599;-67
2022/02/09 03:49:40;;;;;;;;;8.00;8.00;;;;;11.76;57.62;99522.00;6214742;28;97215;-67
2022/02/09 03:56:25;;;;;;;;;9.00;9.00;;;;;11.58;58.27;99528.88;6182522;28;98566;-67
2022/02/09 03:59:30;;;;;;;;;10.00;9.00;;;;;11.57;58.09;99529.09;6217221;28;98189;-67
2022/02/09 04:02:35;;;;;;;;;9.00;8.67;;;;;11.63;58.24;99542.56;6232736;28;97441;-68
2022/02/09 04:05:38;;;;;;;;;11.00;10.00;;;;;11.67;58.16;99540.28;6240404;28;96403;-68
2022/02/09 04:08:47;;;;;;;;;11.00;10.60;;;;;11.71;57.98;99533.41;6237648;27;96885;-66
2022/02/09 04:11:58;;;;;;;;;10.00;9.00;;;;;11.75;57.77;99526.56;6186553;28;99563;-67
2022/02/09 04:15:15;;;;;;;;;10.00;9.40;;;;;11.73;57.88;99535.94;6186702;28;98254;-67
2022/02/09 04:18:36;;;;;;;;;10.00;10.00;;;;;11.76;57.51;99532.81;6199441;28;97611;-67
2022/02/09 04:38:41;;;;;;;;;11.00;9.40;;;;;11.91;57.13;99545.00;6237142;28;96412;-68
2022/02/09 04:45:38;;;;;;;;;8.25;7.25;;;;;11.97;56.98;99543.34;6167590;28;96665;-69
2022/02/09 04:49:03;;;;;;;;;9.00;8.75;;;;;11.89;57.43;99547.09;6203660;28;96925;-67
2022/02/09 04:52:21;;;;;;;;;10.00;9.00;;;;;12.01;57.15;99545.38;6217477;28;97165;-67
2022/02/09 04:55:48;;;;;;;;;12.60;10.00;;;;;11.93;57.35;99539.38;6231327;28;96437;-68
2022/02/09 04:59:05;;;;;;;;;10.00;10.00;;;;;11.84;57.51;99532.56;6214236;28;97502;-68
2022/02/09 05:02:37;;;;;;;;;10.00;10.00;;;;;11.89;57.50;99547.09;6224709;28;98423;-68
2022/02/09 05:26:26;;;;;;;;;9.75;8.00;;;;;11.90;57.16;99550.63;6105060;28;97498;-68
2022/02/09 05:29:30;;;;;;;;;8.00;8.00;;;;;11.87;57.44;99549.19;6134942;28;96744;-69
2022/02/09 05:32:33;;;;;;;;;8.00;8.00;;;;;11.90;57.32;99548.75;6137780;28;96744;-68
2022/02/09 05:35:36;;;;;;;;;9.00;9.00;;;;;11.99;57.18;99555.56;6135381;28;97177;-67
2022/02/09 05:38:39;;;;;;;;;8.00;7.50;;;;;12.05;56.92;99556.59;6136205;28;97767;-69
2022/02/09 05:41:46;;;;;;;;;8.00;8.00;;;;;12.10;56.77;99554.91;6156879;28;96813;-69
2022/02/09 05:44:49;;;;;;;;;8.00;7.00;;;;;12.12;56.72;99546.56;6141155;28;97452;-67
2022/02/09 05:51:26;;;;;;;;;10.00;9.00;;;;;12.13;56.65;99557.16;6212947;28;96672;-68
2022/02/09 05:54:49;;;;;;;;;8.40;8.40;;;;;12.08;56.76;99566.97;6212740;28;96684;-68
2022/02/09 05:58:06;;;;;;;;;8.00;7.00;;;;;11.99;56.99;99566.38;6205383;28;96790;-70
2022/02/09 06:01:10;;;;;;;;;11.00;9.00;;;;;12.03;57.05;99566.78;6193961;28;97191;-67
2022/02/09 06:04:14;;;;;;;;;9.40;8.40;;;;;12.14;56.70;99569.66;6210852;27;97166;-67
2022/02/09 06:07:20;;;;;;;;;8.00;8.00;;;;;12.19;56.36;99576.28;6191292;28;97560;-67
2022/02/09 06:10:28;;;;;;;;;8.40;7.60;;;;;12.10;56.90;99586.50;6213218;28;96839;-67
2022/02/09 06:13:50;;;;;;;;;8.60;7.60;;;;;12.13;56.92;99583.38;6227062;28;96698;-67
2022/02/09 06:20:14;;;;;;;;;8.00;7.00;;;;;11.94;57.34;99600.50;6214078;28;96878;-67
2022/02/09 06:23:17;;;;;;;;;8.00;8.00;;;;;12.03;57.23;99593.81;6211783;28;97406;-67
2022/02/09 06:26:20;;;;;;;;;9.00;8.60;;;;;12.01;57.34;99588.63;6211154;28;96492;-69
2022/02/09 06:29:25;;;;;;;;;9.00;8.25;;;;;11.85;57.55;99588.25;6214139;28;96639;-66
2022/02/09 06:32:28;;;;;;;;;8.60;6.60;;;;;11.97;57.82;99600.88;6211774;28;97525;-65
2022/02/09 06:35:32;;;;;;;;;10.00;9.00;;;;;12.01;57.84;99599.44;6202646;28;99741;-68
2022/02/09 06:38:39;;;;;;;;;11.00;9.00;;;;;12.08;57.39;99594.81;6205863;28;98467;-69
2022/02/09 06:41:42;;;;;;;;;10.00;9.00;;;;;12.15;57.38;99603.75;6211722;28;96539;-67
2022/02/09 06:44:47;;;;;;;;;9.00;8.50;;;;;12.15;57.32;99602.91;6213353;28;96780;-67
2022/02/09 06:47:51;;;;;;;;;10.00;10.00;;;;;12.26;57.15;99606.81;6211320;28;97443;-65
2022/02/09 06:50:57;;;;;;;;;11.40;11.00;;;;;12.31;57.13;99605.13;6226749;28;97434;-67
2022/02/09 06:54:03;;;;;;;;;10.00;9.00;;;;;12.41;56.96;99604.66;6211628;28;96784;-68
2022/02/09 06:57:12;;;;;;;;;11.00;11.00;;;;;12.47;56.73;99595.66;6211716;28;97512;-68
2022/02/09 07:00:19;;;;;;;;;12.00;11.00;;;;;12.48;56.66;99597.34;6209952;28;97995;-69
2022/02/09 07:03:22;;;;;;;;;13.60;12.40;;;;;12.41;56.50;99596.56;6205794;28;96719;-68
2022/02/09 07:06:26;;;;;;;;;13.00;11.50;;;;;12.37;56.79;99596.13;6211185;28;96648;-69
2022/02/09 07:09:29;;;;;;;;;12.50;12.00;;;;;12.39;56.97;99594.06;6217117;28;97127;-67
2022/02/09 07:12:33;;;;;;;;;12.00;10.20;;;;;12.38;56.79;99605.91;6211490;28;97437;-68
2022/02/09 07:15:42;;;;;;;;;12.60;12.00;;;;;12.48;56.59;99590.06;6208561;28;99553;-67
2022/02/09 07:18:47;;;;;;;;;12.67;12.00;;;;;12.52;56.49;99593.16;6209841;28;97141;-68
2022/02/09 07:21:52;;;;;;;;;12.00;11.00;;;;;12.45;56.55;99601.31;6211591;28;96521;-68
2022/02/09 07:25:06;;;;;;;;;12.00;11.00;;;;;12.56;56.30;99602.47;6209452;28;96694;-67
2022/02/09 07:28:10;;;;;;;;;12.40;12.40;;;;;12.61;56.35;99608.06;6200973;28;98127;-69
2022/02/09 07:31:15;;;;;;;;;14.00;12.00;;;;;12.61;56.20;99604.56;6199592;28;97210;-70
2022/02/09 07:34:18;;;;;;;;;12.00;11.00;;;;;12.68;56.05;99610.75;6211401;28;97067;-68
2022/02/09 07:37:21;;;;;;;;;12.40;11.40;;;;;12.62;56.31;99608.91;6212745;28;96423;-66
2022/02/09 07:40:25;;;;;;;;;9.20;9.20;;;;;12.58;56.28;99608.50;6211476;28;97865;-67
2022/02/09 07:43:40;;;;;;;;;11.60;10.40;;;;;12.62;56.42;99612.44;6209283;28;97471;-69
2022/02/09 07:47:04;;;;;;;;;11.00;11.00;;;;;12.59;56.43;99611.00;6194878;28;97011;-67
2022/02/09 07:53:36;;;;;;;;;12.20;11.20;;;;;12.82;55.96;99601.50;6195285;28;96668;-70
2022/02/09 07:56:41;;;;;;;;;13.40;12.40;;;;;12.83;56.04;99597.75;6206793;28;96736;-70
2022/02/09 07:59:45;;;;;;;;;11.40;10.00;;;;;12.89;56.13;99603.13;6202929;28;97007;-68
2022/02/09 08:02:52;;;;;;;;;12.00;10.00;;;;;12.95;56.03;99612.25;6240659;27;97297;-66
2022/02/09 08:05:55;;;;;;;;;10.00;10.00;;;;;12.92;56.37;99613.50;6210071;28;96645;-68
2022/02/09 08:09:05;;;;;;;;;9.00;9.00;;;;;12.97;56.15;99607.41;6214328;28;96614;-68
2022/02/09 08:26:25;;;;;;;;;11.00;10.00;;;;;13.18;56.13;99600.84;6202464;28;96565;-67
2022/02/09 08:29:42;;;;;;;;;11.60;11.00;;;;;13.25;55.95;99601.59;6189278;28;97936;-71
2022/02/09 08:32:52;;;;;;;;;9.60;9.00;;;;;13.26;56.02;99600.56;6208222;28;97059;-69
2022/02/09 08:35:57;;;;;;;;;9.00;8.50;;;;;13.23;56.25;99596.44;6209326;28;97412;-70
2022/02/09 08:39:01;;;;;;;;;7.00;7.00;;;;;13.28;56.27;99607.41;6221188;28;98502;-69
2022/02/09 08:42:05;;;;;;;;;7.00;7.00;;;;;13.33;56.00;99598.63;6213197;28;96984;-71
2022/02/09 08:45:10;;;;;;;;;8.50;7.25;;;;;13.30;56.17;99607.19;6212617;28;96639;-70
2022/02/09 08:48:30;;;;;;;;;5.40;5.00;;;;;13.38;55.90;99613.16;6211706;28;98748;-68
2022/02/09 08:51:35;;;;;;;;;7.00;6.00;;;;;13.34;56.07;99611.94;6208597;28;97465;-67
2022/02/09 08:54:38;;;;;;;;;6.00;6.00;;;;;13.10;56.03;99574.00;6193248;28;96779;-68
2022/02/09 08:57:42;;;;;;;;;7.40;7.00;;;;;13.41;56.03;99618.13;6203088;28;97182;-69
2022/02/09 09:00:46;;;;;;;;;8.00;8.00;;;;;13.52;55.84;99613.03;6209018;28;96756;-67
2022/02/09 09:03:53;;;;;;;;;6.40;6.00;;;;;13.50;55.61;99612.41;6207347;28;97051;-68
2022/02/09 09:07:04;;;;;;;;;7.00;6.00;;;;;13.45;55.81;99626.63;6208496;28;98054;-69
2022/02/09 09:10:15;;;;;;;;;6.20;6.00;;;;;13.54;55.77;99619.88;6202952;28;97034;-67
2022/02/09 10:04:14;;;;;;;;;8.00;7.00;;;;;13.91;54.69;99614.50;6210543;28;98457;-68
2022/02/09 10:31:26;;;;;;;;;8.00;7.60;;;;;14.18;53.58;99600.41;6210034;28;99873;-68
2022/02/09 10:34:36;;;;;;;;;9.40;9.40;;;;;14.24;53.41;99604.09;6210871;28;97699;-67
2022/02/09 10:37:39;;;;;;;;;9.00;9.00;;;;;14.33;53.36;99594.59;6212773;28;96451;-69
2022/02/09 10:40:47;;;;;;;;;11.25;10.00;;;;;14.36;53.23;99588.75;6210661;28;97559;-67
2022/02/09 10:44:04;;;;;;;;;9.00;9.00;;;;;14.45;53.31;99597.38;6211985;28;97718;-68
2022/02/09 10:47:20;;;;;;;;;11.00;9.00;;;;;14.50;53.46;99586.69;6210564;28;98052;-68
2022/02/09 10:50:27;;;;;;;;;9.00;8.00;;;;;14.60;53.08;99586.97;6226874;28;96942;-68
2022/02/09 10:53:30;;;;;;;;;11.75;10.00;;;;;14.71;52.39;99575.28;6205683;28;97357;-69
2022/02/09 10:56:35;;;;;;;;;9.60;9.00;;;;;14.88;52.24;99572.75;6187237;28;97829;-73
2022/02/09 10:59:40;;;;;;;;;11.50;9.50;;;;;14.95;52.07;99577.03;6204630;28;96914;-70
2022/02/09 11:02:49;;;;;;;;;11.60;9.60;;;;;15.07;51.69;99572.44;6195515;28;96504;-70
2022/02/09 11:05:55;;;;;;;;;8.25;8.00;;;;;15.16;51.23;99568.31;6202107;28;97916;-70
2022/02/09 11:08:58;;;;;;;;;9.20;7.80;;;;;15.33;51.03;99571.16;6214656;28;97011;-69
2022/02/09 11:12:02;;;;;;;;;10.00;9.00;;;;;15.27;49.78;99508.78;6196337;28;97434;-70
2022/02/09 11:15:06;;;;;;;;;10.00;7.00;;;;;15.80;49.63;99552.94;6212152;28;97492;-70
2022/02/09 11:18:15;;;;;;;;;8.00;7.00;;;;;15.86;49.03;99560.16;6209201;28;97533;-68
2022/02/09 11:21:27;;;;;;;;;11.50;9.00;;;;;15.73;48.86;99565.88;6209872;28;98590;-70
2022/02/09 11:24:31;;;;;;;;;8.00;7.00;;;;;15.70;49.11;99555.44;6211530;28;97529;-66
2022/02/09 11:27:37;;;;;;;;;9.00;8.20;;;;;15.74;49.21;99551.19;6209664;28;97497;-69
2022/02/09 11:30:46;;;;;;;;;10.40;9.60;;;;;15.66;49.13;99551.56;6200496;28;96974;-69
2022/02/09 11:34:08;;;;;;;;;9.00;8.40;;;;;15.63;49.16;99549.31;6223635;28;96642;-69
2022/02/09 11:37:13;;;;;;;;;11.00;8.00;;;;;15.67;49.19;99541.50;6208957;28;96494;-69
2022/02/09 11:40:34;;;;;;;;;10.00;9.00;;;;;15.78;48.88;99549.66;6211287;28;96564;-68
2022/02/09 11:44:09;;;;;;;;;7.00;6.00;;;;;15.76;48.76;99548.22;6211553;28;97502;-69
2022/02/09 11:47:37;;;;;;;;;7.00;7.00;;;;;15.64;49.19;99552.88;6211733;28;98423;-70
2022/02/09 11:51:18;;;;;;;;;8.00;7.00;;;;;15.65;49.10;99554.50;6214970;28;96671;-66
2022/02/09 11:54:58;;;;;;;;;9.00;8.00;;;;;15.59;48.81;99557.09;6228249;28;96689;-71
2022/02/09 12:08:43;;;;;;;;;6.75;6.00;;;;;15.56;48.71;99548.59;6208487;28;98235;-65
2022/02/09 12:09:12;;;;;;;;;6.60;6.00;;;;;15.63;49.04;99557.47;6207733;28;98224;-71
2022/02/09 12:12:20;;;;;;;;;7.00;6.40;;;;;15.32;48.69;99534.19;6228919;28;96696;-72
2022/02/09 12:16:30;;;;;;;;;8.25;8.25;;;;;15.33;48.94;99557.56;6212470;28;98038;-72
2022/02/09 12:19:33;;;;;;;;;9.00;8.00;;;;;15.40;49.17;99555.56;6229379;28;96815;-70
2022/02/09 12:22:45;;;;;;;;;8.00;8.00;;;;;15.29;49.18;99555.56;6214940;28;96759;-68
2022/02/09 12:25:51;;;;;;;;;10.00;9.00;;;;;15.30;49.67;99554.47;6199215;28;96700;-67
2022/02/09 12:28:59;;;;;;;;;9.60;9.60;;;;;15.25;49.67;99559.81;6212611;28;96647;-70
2022/02/09 12:32:23;;;;;;;;;12.00;10.80;;;;;15.24;49.61;99558.16;6211029;28;96969;-70
2022/02/09 12:35:26;;;;;;;;;11.00;9.00;;;;;15.24;49.65;99550.84;6198643;28;97932;-69
2022/02/09 12:38:30;;;;;;;;;8.50;7.50;;;;;15.19;49.89;99553.44;6206427;28;97108;-68
2022/02/09 12:41:35;;;;;;;;;10.00;10.00;;;;;15.17;49.80;99544.69;6211166;28;97521;-71
2022/02/09 12:44:38;;;;;;;;;10.00;9.00;;;;;15.18;49.94;99546.34;6212076;28;96529;-69
2022/02/09 12:47:44;;;;;;;;;9.80;8.40;;;;;14.95;49.85;99509.16;6192307;28;98935;-68
2022/02/09 12:50:50;;;;;;;;;8.00;8.00;;;;;15.14;49.72;99539.75;6215154;28;97252;-70
2022/02/09 12:53:54;;;;;;;;;8.40;8.00;;;;;15.08;49.84;99536.06;6196849;28;97276;-68
2022/02/09 12:56:59;;;;;;;;;9.40;8.80;;;;;15.08;49.74;99532.53;6208066;28;96856;-70
2022/02/09 13:00:03;;;;;;;;;11.25;9.25;;;;;14.93;50.15;99540.28;6201961;28;96751;-71
2022/02/09 13:03:08;;;;;;;;;9.00;9.00;;;;;14.98;50.30;99535.00;6206156;28;98382;-71
2022/02/09 13:06:12;;;;;;;;;9.00;8.00;;;;;14.98;50.48;99535.81;6211909;28;97919;-70
2022/02/09 13:09:18;;;;;;;;;11.00;9.40;;;;;15.02;50.11;99538.88;6196828;28;96552;-71
2022/02/09 13:12:25;;;;;;;;;8.00;7.80;;;;;15.00;50.24;99541.81;6226011;28;97348;-71
2022/02/09 13:15:31;;;;;;;;;7.50;7.50;;;;;14.91;50.26;99545.94;6213483;28;97655;-70
2022/02/09 13:18:54;;;;;;;;;10.00;8.75;;;;;14.80;50.68;99537.81;6195868;28;97127;-71
2022/02/09 13:22:42;;;;;;;;;8.80;8.00;;;;;14.84;50.29;99542.53;6205713;28;97263;-68
2022/02/09 13:26:24;;;;;;;;;9.00;8.00;;;;;14.62;50.18;99495.25;6210507;28;97410;-72
2022/02/09 13:54:15;;;;;;;;;8.20;7.80;;;;;15.37;49.84;99553.31;6207977;28;97385;-68
2022/02/09 14:07:33;;;;;;;;;9.00;8.00;;;;;15.20;50.11;99538.78;6204374;28;97707;-69
2022/02/09 14:11:00;;;;;;;;;11.00;11.00;;;;;15.13;50.41;99540.78;6209064;28;96756;-69
2022/02/09 14:14:47;;;;;;;;;10.00;9.00;;;;;15.17;50.55;99536.53;6192183;28;98502;-67
2022/02/09 14:18:07;;;;;;;;;10.00;8.40;;;;;15.04;50.94;99540.31;6208564;28;99556;-68
2022/02/09 14:48:41;;;;;;;;;8.00;6.00;;;;;14.79;50.37;99539.69;6193061;28;97055;-68
2022/02/09 14:55:17;;;;;;;;;7.00;6.33;;;;;14.79;50.33;99541.56;6193649;28;100023;-67
2022/02/09 14:58:25;;;;;;;;;5.00;5.00;;;;;14.80;50.37;99543.22;6226407;28;97484;-73
2022/02/09 15:01:36;;;;;;;;;5.20;5.20;;;;;14.55;50.70;99543.41;6207829;28;98153;-73
2022/02/09 15:05:12;;;;;;;;;5.50;5.50;;;;;14.60;50.85;99544.38;6204571;28;97455;-71
2022/02/09 15:08:24;;;;;;;;;9.00;8.00;;;;;14.66;50.80;99543.41;6211057;28;97005;-68
2022/02/09 15:11:34;;;;;;;;;9.00;8.00;;;;;14.63;51.05;99541.19;6211161;28;96575;-67
2022/02/09 15:14:49;;;;;;;;;11.00;11.00;;;;;14.54;51.00;99552.59;6197221;28;96563;-71
2022/02/09 15:18:19;;;;;;;;;12.00;11.00;;;;;14.45;51.18;99562.97;6208761;28;97639;-70
2022/02/09 15:21:47;;;;;;;;;11.80;11.00;;;;;14.27;51.02;99543.94;6216821;28;96993;-68
2022/02/09 15:24:50;;;;;;;;;11.00;11.00;;;;;14.28;51.15;99554.59;6215246;28;96890;-70
2022/02/09 15:27:59;;;;;;;;;11.00;10.20;;;;;14.37;50.66;99552.41;6215627;28;96696;-71
2022/02/09 15:31:08;;;;;;;;;13.00;12.00;;;;;14.22;50.71;99538.41;6206985;28;97186;-69
2022/02/09 15:34:16;;;;;;;;;12.00;9.00;;;;;14.14;50.82;99553.09;6210001;28;97577;-69
2022/02/09 15:37:26;;;;;;;;;11.00;10.40;;;;;14.07;50.96;99552.38;6211967;28;97500;-70
2022/02/09 15:40:34;;;;;;;;;12.00;12.00;;;;;13.85;51.30;99553.88;6213037;28;96992;-69
2022/02/09 15:44:04;;;;;;;;;16.00;13.00;;;;;13.89;51.13;99542.38;6210558;28;97500;-71
2022/02/09 15:57:42;;;;;;;;;13.20;12.00;;;;;13.92;51.05;99534.84;6214079;28;99898;-70
2022/02/09 16:11:00;;;;;;;;;12.00;11.00;;;;;14.00;50.08;99531.81;6205014;28;97627;-70
2022/02/09 16:24:12;;;;;;;;;11.00;10.00;;;;;13.75;49.60;99538.16;6212833;28;97744;-69
2022/02/09 16:47:35;;;;;;;;;12.00;11.00;;;;;13.70;49.20;99534.47;6187420;28;96891;-70
2022/02/09 16:50:48;;;;;;;;;10.00;9.00;;;;;13.75;48.98;99543.59;6196970;28;96674;-70
2022/02/09 16:54:06;;;;;;;;;9.00;8.00;;;;;13.70;48.78;99537.19;6206903;28;96470;-69
2022/02/09 17:08:24;;;;;;;;;11.00;10.00;;;;;13.77;48.79;99540.66;6222081;27;97470;-70
2022/02/09 17:20:49;;;;;;;;;8.00;8.00;;;;;13.55;48.46;99536.72;6194781;28;97853;-69
2022/02/09 17:23:57;;;;;;;;;10.00;9.00;;;;;13.62;48.46;99538.31;6212013;28;98954;-69
2022/02/09 17:27:00;;;;;;;;;13.00;10.60;;;;;13.67;48.44;99535.75;6211383;28;97762;-69
2022/02/09 17:30:44;;;;;;;;;12.50;10.00;;;;;13.52;48.52;99538.00;6207279;28;96860;-69
2022/02/09 17:34:07;;;;;;;;;12.80;11.00;;;;;13.50;48.41;99537.41;6204405;28;97532;-69
2022/02/09 17:37:34;;;;;;;;;11.00;10.00;;;;;13.52;48.66;99532.59;6207132;28;98469;-69
2022/02/09 17:54:20;;;;;;;;;14.00;12.00;;;;;13.44;48.54;99533.69;6207482;28;97827;-69
2022/02/09 17:57:35;;;;;;;;;14.00;12.00;;;;;13.40;48.89;99540.63;6210092;28;97120;-69
2022/02/09 18:00:39;;;;;;;;;15.50;13.00;;;;;13.41;48.72;99542.28;6211045;28;97275;-70
2022/02/09 18:03:42;;;;;;;;;12.75;11.00;;;;;13.43;48.80;99548.31;6219559;28;98203;-70
2022/02/09 18:06:54;;;;;;;;;14.00;13.75;;;;;13.13;48.64;99492.38;6227431;28;96856;-68
2022/02/09 18:10:06;;;;;;;;;17.00;15.00;;;;;13.35;49.00;99547.75;6212957;28;96429;-70
2022/02/09 18:30:34;;;;;;;;;15.40;14.00;;;;;13.16;49.62;99532.53;6209738;28;98033;-69
2022/02/09 18:44:14;;;;;;;;;13.20;12.00;;;;;13.15;49.77;99520.88;6285406;27;96711;-68
2022/02/09 18:47:44;;;;;;;;;17.00;14.40;;;;;13.12;49.84;99532.16;6254311;27;96906;-68
2022/02/09 19:04:28;;;;;;;;;14.80;13.00;;;;;13.35;49.85;99539.63;6254789;27;96556;-70
2022/02/09 19:07:53;;;;;;;;;16.60;15.00;;;;;13.35;50.07;99551.31;6256816;27;97507;-70
2022/02/09 19:14:24;;;;;;;;;14.20;14.00;;;;;13.50;50.18;99550.94;6237190;27;96377;-69
2022/02/09 19:17:39;;;;;;;;;16.40;15.00;;;;;13.34;50.65;99544.22;6254993;27;96410;-70
2022/02/09 19:20:59;;;;;;;;;17.80;15.80;;;;;13.39;50.81;99560.63;6260550;27;98239;-70
2022/02/09 19:30:49;;;;;;;;;21.00;20.00;;;;;13.12;51.80;99551.09;6250099;27;97869;-70
2022/02/09 19:40:54;;;;;;;;;17.60;17.60;;;;;13.03;51.84;99560.53;6242357;27;97976;-69
2022/02/09 19:47:31;;;;;;;;;20.40;18.40;;;;;13.05;51.40;99571.94;6231462;27;96812;-70
2022/02/09 19:50:52;;;;;;;;;21.20;20.00;;;;;12.93;51.44;99560.19;6231106;27;97746;-69
2022/02/09 19:54:07;;;;;;;;;20.00;18.00;;;;;12.98;51.41;99574.72;6241271;27;97774;-69
2022/02/09 19:57:11;;;;;;;;;21.00;18.50;;;;;12.91;51.10;99571.22;6230800;27;97884;-69
2022/02/09 20:00:19;;;;;;;;;19.75;18.00;;;;;13.01;50.84;99571.56;6256044;27;97517;-68
2022/02/09 20:03:23;;;;;;;;;19.00;17.50;;;;;12.95;50.63;99566.22;6241273;27;97389;-69
2022/02/09 20:06:27;;;;;;;;;16.50;15.50;;;;;12.97;50.60;99573.06;6246988;27;97288;-70
2022/02/09 20:09:31;;;;;;;;;16.00;15.00;;;;;12.84;50.69;99570.47;6255160;27;96802;-69
2022/02/09 20:12:34;;;;;;;;;17.00;16.00;;;;;12.69;50.52;99582.66;6238059;27;99423;-69
2022/02/09 20:15:37;;;;;;;;;18.00;16.00;;;;;12.70;50.65;99579.75;6240140;28;97465;-69
2022/02/09 20:18:41;;;;;;;;;16.33;16.00;;;;;12.78;50.43;99578.63;6238779;28;97538;-69
2022/02/09 20:21:45;;;;;;;;;13.75;13.00;;;;;12.69;50.15;99582.66;6215249;28;97459;-70
2022/02/09 20:24:49;;;;;;;;;15.60;14.00;;;;;12.83;49.80;99579.63;6217710;28;96671;-68
2022/02/09 20:27:54;;;;;;;;;15.20;13.00;;;;;12.76;49.70;99591.53;6235214;28;98232;-69
2022/02/09 20:31:02;;;;;;;;;15.25;13.00;;;;;12.82;49.10;99591.50;6215826;28;96861;-69
2022/02/09 20:34:12;;;;;;;;;16.00;13.00;;;;;12.85;49.33;99585.63;6214729;28;97485;-69
2022/02/09 20:37:18;;;;;;;;;18.00;16.75;;;;;12.82;49.44;99586.09;6226771;27;97411;-69
2022/02/09 20:40:24;;;;;;;;;17.80;16.00;;;;;12.80;49.14;99580.09;6219711;28;97530;-69
2022/02/09 20:43:28;;;;;;;;;18.00;17.00;;;;;12.78;48.92;99584.88;6219547;28;96584;-69
2022/02/09 20:46:33;;;;;;;;;15.00;14.00;;;;;12.80;48.89;99585.50;6226159;27;97365;-69
2022/02/09 20:49:36;;;;;;;;;16.33;14.33;;;;;12.72;48.89;99572.22;6219286;28;98889;-69
2022/02/09 20:52:41;;;;;;;;;14.00;13.60;;;;;12.71;48.75;99572.41;6229079;28;97599;-69
2022/02/09 20:55:45;;;;;;;;;12.00;12.00;;;;;12.68;48.58;99595.34;6233904;28;97442;-69
2022/02/09 20:58:52;;;;;;;;;14.40;14.00;;;;;12.78;48.46;99579.47;6238944;27;96771;-69
2022/02/09 21:02:02;;;;;;;;;13.00;13.00;;;;;12.70;48.35;99570.78;6234429;27;96712;-69
2022/02/09 21:05:26;;;;;;;;;15.60;15.00;;;;;12.70;48.38;99566.22;6233898;27;96710;-69
2022/02/09 21:08:42;;;;;;;;;17.00;14.40;;;;;12.79;48.13;99558.66;6226974;27;97584;-70
2022/02/09 21:11:55;;;;;;;;;15.00;14.33;;;;;12.75;47.62;99560.97;6253392;27;97458;-69
2022/02/09 21:15:23;;;;;;;;;15.00;14.00;;;;;12.62;47.75;99557.50;6241209;27;97639;-69
2022/02/09 21:18:53;;;;;;;;;14.00;13.00;;;;;12.56;47.85;99567.31;6227294;27;98544;-69
2022/02/09 21:45:53;;;;;;;;;12.75;11.75;;;;;12.77;46.30;99552.59;6229382;27;100248;-69
2022/02/09 21:55:52;;;;;;;;;13.00;11.40;;;;;12.94;45.91;99569.97;6235591;27;97318;-68
2022/02/09 21:59:20;;;;;;;;;12.20;11.00;;;;;12.84;45.72;99554.22;6258774;27;96853;-69
2022/02/09 22:19:31;;;;;;;;;12.00;11.00;;;;;12.76;45.33;99553.66;6237981;27;97767;-69
2022/02/09 22:22:42;;;;;;;;;12.00;11.00;;;;;12.75;45.16;99550.16;6254828;27;97229;-69
2022/02/09 22:26:30;;;;;;;;;10.40;9.40;;;;;12.78;44.81;99551.56;6252925;27;97032;-70
2022/02/09 22:30:13;;;;;;;;;10.50;10.00;;;;;12.72;44.96;99552.44;6255174;27;97510;-69
2022/02/09 22:50:14;;;;;;;;;13.80;12.80;;;;;12.83;44.45;99532.81;6246988;27;97818;-69
2022/02/09 22:56:37;;;;;;;;;13.00;13.00;;;;;12.85;44.09;99526.09;6254242;27;96798;-70
2022/02/09 22:59:45;;;;;;;;;12.80;11.00;;;;;12.82;43.94;99536.53;6249748;27;97485;-70
2022/02/09 23:02:53;;;;;;;;;14.80;13.00;;;;;12.82;44.01;99531.97;6250823;27;98584;-70
2022/02/09 23:06:22;;;;;;;;;10.00;10.00;;;;;12.85;44.07;99526.09;6232827;28;96959;-70
2022/02/09 23:09:42;;;;;;;;;10.60;10.60;;;;;12.85;43.99;99531.50;6256820;27;97608;-69
2022/02/09 23:12:52;;;;;;;;;12.00;11.00;;;;;12.82;44.07;99531.13;6233450;27;100432;-70
2022/02/09 23:16:08;;;;;;;;;10.00;10.00;;;;;12.90;43.97;99528.19;6249505;27;97409;-68
2022/02/09 23:53:24;;;;;;;;;8.20;7.80;;;;;12.85;43.40;99501.75;6236504;27;97205;-69
2022/02/09 23:57:14;;;;;;;;;10.40;9.00;;;;;12.97;43.15;99501.88;6222830;27;96636;-68
